Time;durP1;ratioP1;P1;durP2;ratioP2;P2;SDS_P1;SDS_P2;PMS_P1;PMS_P2;Temp;Humidity;BMP_temperature;BMP_pressure;BME280_temperature;BME280_humidity;BME280_pressure;Samples;Min_cycle;Max_cycle;Signal;HPM_P1;HPM_P2
2021/08/23 00:00:03;;;;;;;5.30;4.75;;;;;;;15.88;100.00;101195.97;4960226;28;20803;-77
2021/08/23 00:02:29;;;;;;;5.38;4.88;;;;;;;15.87;100.00;101200.38;4951208;28;20038;-80
2021/08/23 00:04:56;;;;;;;6.20;4.72;;;;;;;15.88;100.00;101190.72;4962506;28;20042;-83
2021/08/23 00:07:22;;;;;;;4.72;4.32;;;;;;;15.87;100.00;101200.38;4951270;28;20646;-85
2021/08/23 00:09:50;;;;;;;6.50;5.90;;;;;;;15.87;100.00;101197.75;4965576;28;20042;-79
2021/08/23 00:12:17;;;;;;;6.13;5.53;;;;;;;15.90;100.00;101194.16;4959864;28;20055;-82
2021/08/23 00:14:44;;;;;;;6.80;5.45;;;;;;;15.91;100.00;101193.25;4964180;28;20043;-77
2021/08/23 00:17:10;;;;;;;6.55;5.82;;;;;;;15.93;100.00;101185.31;4946712;28;20145;-84
2021/08/23 00:19:37;;;;;;;6.95;5.47;;;;;;;15.92;100.00;101189.72;4968285;28;20046;-79
2021/08/23 00:22:19;;;;;;;7.25;5.78;;;;;;;15.91;100.00;101185.34;4953049;28;21445;-82
2021/08/23 00:24:48;;;;;;;9.27;6.75;;;;;;;15.91;100.00;101192.41;4948268;28;20054;-78
2021/08/23 00:27:14;;;;;;;6.18;5.25;;;;;;;15.92;100.00;101188.84;4967186;28;20054;-83
2021/08/23 00:29:41;;;;;;;6.03;5.43;;;;;;;15.90;100.00;101188.88;4963726;28;20125;-79
2021/08/23 00:32:07;;;;;;;6.05;5.45;;;;;;;15.87;100.00;101183.69;4965350;28;20053;-77
2021/08/23 00:34:34;;;;;;;5.55;5.05;;;;;;;15.89;100.00;101184.50;4964216;28;20042;-81
2021/08/23 00:37:01;;;;;;;5.25;4.85;;;;;;;15.89;100.00;101189.78;4964496;28;20050;-82
2021/08/23 00:39:27;;;;;;;6.75;4.97;;;;;;;15.88;100.00;101191.56;4950572;28;20046;-81
2021/08/23 00:41:54;;;;;;;8.23;5.22;;;;;;;15.87;100.00;101199.53;4948910;28;20061;-80
2021/08/23 00:44:20;;;;;;;8.27;5.03;;;;;;;15.84;100.00;101197.81;4948349;28;20039;-78
2021/08/23 00:46:47;;;;;;;4.85;4.45;;;;;;;15.83;100.00;101197.84;4961387;28;20050;-83
2021/08/23 00:49:14;;;;;;;4.90;4.40;;;;;;;15.82;100.00;101201.41;4950196;28;20388;-85
2021/08/23 00:51:40;;;;;;;6.15;4.10;;;;;;;15.81;100.00;101197.91;4954151;28;20038;-80
2021/08/23 00:54:07;;;;;;;6.10;4.13;;;;;;;15.81;100.00;101202.28;4946633;28;20059;-82
2021/08/23 00:56:34;;;;;;;4.38;3.75;;;;;;;15.79;100.00;101209.38;4955705;28;20636;-78
2021/08/23 00:59:01;;;;;;;5.35;4.82;;;;;;;15.76;100.00;101201.50;4963240;28;21262;-80
2021/08/23 01:02:01;;;;;;;4.72;4.32;;;;;;;15.72;100.00;101203.31;4962769;28;20059;-79
2021/08/23 01:04:42;;;;;;;4.82;4.38;;;;;;;15.65;100.00;101207.00;4948273;28;20046;-81
2021/08/23 01:07:13;;;;;;;5.28;4.82;;;;;;;15.60;100.00;101204.44;4936781;28;20591;-78
2021/08/23 01:09:47;;;;;;;7.15;4.63;;;;;;;15.54;100.00;101213.38;4965476;28;20429;-81
2021/08/23 01:12:15;;;;;;;5.15;4.65;;;;;;;15.50;100.00;101214.34;4949711;28;20096;-81
2021/08/23 01:14:43;;;;;;;4.72;4.03;;;;;;;15.46;100.00;101217.94;4966815;28;20047;-79
2021/08/23 01:17:09;;;;;;;6.60;4.18;;;;;;;15.42;100.00;101223.31;4950190;28;20062;-79
2021/08/23 01:19:40;;;;;;;7.47;5.18;;;;;;;15.39;100.00;101221.59;4954743;28;20050;-77
2021/08/23 01:22:07;;;;;;;7.10;4.18;;;;;;;15.35;100.00;101225.19;4952806;28;20061;-82
2021/08/23 01:24:37;;;;;;;5.03;4.25;;;;;;;15.34;100.00;101234.91;4965265;28;20073;-81
2021/08/23 01:27:09;;;;;;;3.60;3.30;;;;;;;15.34;100.00;101228.72;4960701;28;20940;-78
2021/08/23 01:30:05;;;;;;;6.35;4.30;;;;;;;15.34;100.00;101234.00;4950730;28;20046;-78
2021/08/23 01:32:33;;;;;;;4.90;4.60;;;;;;;15.36;100.00;101230.44;4969261;28;20070;-80
2021/08/23 01:35:02;;;;;;;6.20;4.22;;;;;;;15.39;100.00;101230.38;4964634;28;20050;-86
2021/08/23 01:37:33;;;;;;;4.57;4.03;;;;;;;15.42;100.00;101236.50;4980222;28;20508;-81
2021/08/23 01:39:59;;;;;;;4.43;3.95;;;;;;;15.44;100.00;101237.34;4981537;28;20879;-80
2021/08/23 01:42:26;;;;;;;8.90;5.40;;;;;;;15.45;100.00;101239.06;4938913;28;20060;-80
2021/08/23 01:44:52;;;;;;;4.72;4.32;;;;;;;15.45;100.00;101233.78;4938918;28;20133;-79
2021/08/23 01:47:19;;;;;;;3.92;3.53;;;;;;;15.46;100.00;101243.44;4951039;28;21414;-77
2021/08/23 01:49:45;;;;;;;3.42;3.13;;;;;;;15.44;100.00;101243.47;4979310;28;20516;-79
2021/08/23 01:52:12;;;;;;;3.90;3.50;;;;;;;15.42;100.00;101241.78;4938346;28;20845;-83
2021/08/23 01:54:44;;;;;;;4.47;3.58;;;;;;;15.39;100.00;101238.28;4950074;28;20046;-78
2021/08/23 01:57:16;;;;;;;4.57;3.33;;;;;;;15.39;100.00;101240.06;4954078;28;20074;-84
2021/08/23 01:59:46;;;;;;;4.53;3.97;;;;;;;15.42;100.00;101242.63;4951184;28;20054;-84
2021/08/23 02:02:13;;;;;;;4.45;3.67;;;;;;;15.42;100.00;101245.25;4952835;28;20055;-82
2021/08/23 02:04:39;;;;;;;4.60;4.20;;;;;;;15.43;100.00;101241.75;4967228;28;20060;-85
2021/08/23 02:07:05;;;;;;;2.83;2.72;;;;;;;15.43;100.00;101244.38;4948151;28;20047;-77
2021/08/23 02:09:32;;;;;;;6.68;4.15;;;;;;;15.43;100.00;101240.88;4937726;28;20081;-83
2021/08/23 02:11:58;;;;;;;4.80;3.58;;;;;;;15.44;100.00;101240.00;4965511;28;20058;-82
2021/08/23 02:14:25;;;;;;;4.72;3.58;;;;;;;15.44;100.00;101240.00;4952422;28;20062;-80
2021/08/23 02:16:54;;;;;;;6.50;3.92;;;;;;;15.45;100.00;101241.69;4953393;28;20042;-80
2021/08/23 02:19:21;;;;;;;5.97;3.75;;;;;;;15.44;100.00;101246.13;4970578;28;20070;-85
2021/08/23 02:21:55;;;;;;;4.38;3.97;;;;;;;15.45;100.00;101250.50;4968905;28;20049;-84
2021/08/23 02:24:23;;;;;;;3.55;3.08;;;;;;;15.44;100.00;101250.53;4949741;28;20654;-83
2021/08/23 02:26:51;;;;;;;4.10;3.40;;;;;;;15.43;100.00;101254.06;4952339;28;20049;-80
2021/08/23 02:29:18;;;;;;;3.85;3.55;;;;;;;15.42;100.00;101245.25;4951364;28;20058;-84
2021/08/23 02:31:44;;;;;;;4.47;3.90;;;;;;;15.43;100.00;101257.56;4967108;28;20437;-84
2021/08/23 02:34:11;;;;;;;3.85;3.15;;;;;;;15.43;100.00;101257.56;4953177;28;20400;-79
2021/08/23 02:36:37;;;;;;;3.72;3.35;;;;;;;15.43;100.00;101249.66;4949675;28;20112;-83
2021/08/23 02:39:05;;;;;;;3.70;3.40;;;;;;;15.45;100.00;101260.16;4968135;28;20054;-80
2021/08/23 02:41:32;;;;;;;4.40;4.00;;;;;;;15.44;100.00;101269.00;4964026;28;20074;-81
2021/08/23 02:43:58;;;;;;;3.42;3.22;;;;;;;15.45;100.00;101265.44;4967048;28;21548;-80
2021/08/23 02:46:25;;;;;;;4.70;3.90;;;;;;;15.47;100.00;101264.53;4955018;28;20581;-80
2021/08/23 02:48:51;;;;;;;3.80;3.50;;;;;;;15.49;100.00;101267.16;4948163;28;20047;-79
2021/08/23 02:51:18;;;;;;;3.67;3.20;;;;;;;15.49;100.00;101264.50;4952185;28;20536;-86
2021/08/23 02:53:44;;;;;;;4.25;3.20;;;;;;;15.48;100.00;101266.25;4948738;28;20184;-85
2021/08/23 02:56:11;;;;;;;4.07;3.55;;;;;;;15.48;100.00;101271.53;4956247;28;20048;-83
2021/08/23 02:58:38;;;;;;;3.83;3.08;;;;;;;15.48;100.00;101273.31;4952814;28;20498;-84
2021/08/23 03:01:04;;;;;;;4.10;3.38;;;;;;;15.46;100.00;101270.72;4965515;28;20042;-77
2021/08/23 03:03:31;;;;;;;4.00;3.60;;;;;;;15.45;100.00;101284.81;4936175;28;20431;-83
2021/08/23 03:05:57;;;;;;;3.17;2.97;;;;;;;15.44;100.00;101275.16;4949166;28;20046;-78
2021/08/23 03:08:24;;;;;;;4.30;3.90;;;;;;;15.44;100.00;101283.06;4953656;28;20125;-81
2021/08/23 03:10:54;;;;;;;5.35;4.40;;;;;;;15.44;100.00;101285.69;4955275;28;20413;-81
2021/08/23 03:13:22;;;;;;;3.53;3.22;;;;;;;15.41;100.00;101288.41;4963853;28;20409;-79
2021/08/23 03:15:50;;;;;;;4.30;4.00;;;;;;;15.41;100.00;101285.78;4963778;28;20043;-82
2021/08/23 03:18:17;;;;;;;7.07;4.28;;;;;;;15.37;100.00;101284.09;4948037;28;20177;-80
2021/08/23 03:20:43;;;;;;;6.22;4.20;;;;;;;15.35;100.00;101285.88;4952357;28;20051;-78
2021/08/23 03:23:10;;;;;;;5.78;4.75;;;;;;;15.35;100.00;101285.88;4967999;28;20385;-80
2021/08/23 03:25:36;;;;;;;3.70;3.15;;;;;;;15.34;100.00;101285.03;4947744;28;20085;-78
2021/08/23 03:28:03;;;;;;;6.43;4.75;;;;;;;15.33;100.00;101292.94;4955603;28;20538;-82
2021/08/23 03:30:29;;;;;;;6.93;5.20;;;;;;;15.32;100.00;101288.59;4932638;28;20054;-80
2021/08/23 03:32:56;;;;;;;4.72;4.32;;;;;;;15.31;100.00;101286.84;4950551;28;20049;-83
2021/08/23 03:35:22;;;;;;;8.00;5.22;;;;;;;15.33;100.00;101287.66;4950404;28;20042;-84
2021/08/23 03:37:49;;;;;;;4.60;4.20;;;;;;;15.33;100.00;101291.19;4946816;28;20125;-86
2021/08/23 03:40:15;;;;;;;4.60;4.20;;;;;;;15.33;100.00;101290.28;4962969;28;20046;-82
2021/08/23 03:42:42;;;;;;;6.57;4.55;;;;;;;15.33;100.00;101285.91;4960942;28;20293;-78
2021/08/23 03:45:09;;;;;;;6.43;5.15;;;;;;;15.35;100.00;101292.00;4949767;28;20229;-81
2021/08/23 03:47:38;;;;;;;4.93;3.78;;;;;;;15.35;100.00;101292.00;4951228;28;20252;-86
2021/08/23 03:50:05;;;;;;;4.28;3.88;;;;;;;15.34;100.00;101297.31;4963844;28;20705;-80
2021/08/23 03:52:32;;;;;;;4.03;3.67;;;;;;;15.34;100.00;101290.28;4936325;28;20050;-78
2021/08/23 03:54:58;;;;;;;3.47;3.28;;;;;;;15.35;100.00;101296.44;4963480;28;20113;-84
2021/08/23 03:57:25;;;;;;;4.10;3.80;;;;;;;15.35;100.00;101288.50;4950646;28;20046;-85
2021/08/23 03:59:51;;;;;;;3.85;3.55;;;;;;;15.34;100.00;101289.41;4947755;28;20453;-79
2021/08/23 04:02:18;;;;;;;4.82;4.10;;;;;;;15.35;100.00;101294.66;4952696;28;20401;-81
2021/08/23 04:04:44;;;;;;;6.70;3.72;;;;;;;15.37;100.00;101292.00;4948926;28;20053;-79
2021/08/23 04:07:11;;;;;;;5.18;4.18;;;;;;;15.37;100.00;101295.50;4970597;28;20050;-80
2021/08/23 04:09:37;;;;;;;6.78;3.90;;;;;;;15.38;100.00;101307.81;4957727;28;20051;-79
2021/08/23 04:12:04;;;;;;;6.53;4.20;;;;;;;15.38;100.00;101310.44;4963225;28;20133;-84
2021/08/23 04:14:31;;;;;;;7.00;4.43;;;;;;;15.39;100.00;101314.78;4966988;28;20054;-80
2021/08/23 04:16:58;;;;;;;3.83;3.40;;;;;;;15.37;100.00;101315.75;4979958;28;20071;-86
2021/08/23 04:19:25;;;;;;;4.53;4.10;;;;;;;15.38;100.00;101310.44;4939290;28;20058;-81
2021/08/23 04:21:51;;;;;;;5.95;4.68;;;;;;;15.40;100.00;101315.69;4967384;28;20189;-79
2021/08/23 04:24:18;;;;;;;10.60;5.57;;;;;;;15.39;100.00;101320.06;4961573;28;20504;-83
2021/08/23 04:26:44;;;;;;;5.63;4.75;;;;;;;15.38;100.00;101321.00;4949162;28;20134;-79
2021/08/23 04:29:11;;;;;;;5.88;4.68;;;;;;;15.37;100.00;101327.16;4954574;28;20043;-82
2021/08/23 04:31:37;;;;;;;4.43;4.03;;;;;;;15.38;100.00;101325.38;4944842;28;20042;-78
2021/08/23 04:34:04;;;;;;;5.72;5.18;;;;;;;15.39;100.00;101325.34;4967728;28;20429;-84
2021/08/23 04:36:31;;;;;;;6.28;4.47;;;;;;;15.41;100.00;101330.63;4950968;28;20050;-78
2021/08/23 04:38:57;;;;;;;5.97;4.78;;;;;;;15.42;100.00;101336.75;4949735;28;20100;-80
2021/08/23 04:41:24;;;;;;;4.80;4.38;;;;;;;15.41;100.00;101324.44;4965468;28;20053;-78
2021/08/23 04:43:50;;;;;;;7.53;4.22;;;;;;;15.40;100.00;101336.78;4943826;28;20508;-84
2021/08/23 04:46:17;;;;;;;6.65;3.90;;;;;;;15.42;100.00;101334.13;4939054;28;20047;-79
2021/08/23 04:48:44;;;;;;;5.22;4.68;;;;;;;15.43;100.00;101335.84;4950264;28;20379;-83
2021/08/23 04:51:11;;;;;;;5.43;4.60;;;;;;;15.43;100.00;101338.50;4951774;28;20042;-78
2021/08/23 04:53:37;;;;;;;4.10;3.80;;;;;;;15.45;100.00;101348.13;4943658;28;20054;-82
2021/08/23 04:56:11;;;;;;;3.40;3.10;;;;;;;15.48;100.00;101339.28;4965047;28;20066;-89
2021/08/23 04:58:38;;;;;;;;;;;;;;;15.48;100.00;101350.69;4969833;28;20490;-85
2021/08/23 05:01:05;;;;;;;4.68;4.05;;;;;;;15.49;100.00;101343.66;4949462;28;19932;-79
2021/08/23 05:03:32;;;;;;;4.88;4.15;;;;;;;15.50;100.00;101354.19;4941178;28;20343;-78
2021/08/23 05:05:58;;;;;;;3.85;3.55;;;;;;;15.49;100.00;101343.66;4954372;28;20113;-81
2021/08/23 05:08:25;;;;;;;5.15;3.95;;;;;;;15.48;100.00;101355.97;4951532;28;20114;-82
2021/08/23 05:10:52;;;;;;;4.50;4.10;;;;;;;15.46;100.00;101352.50;4954090;28;20178;-80
2021/08/23 05:13:18;;;;;;;5.03;3.28;;;;;;;15.49;100.00;101362.13;4950708;28;20073;-85
2021/08/23 05:15:45;;;;;;;3.65;3.30;;;;;;;15.51;100.00;101355.94;4936147;28;20054;-83
2021/08/23 05:18:11;;;;;;;5.55;4.95;;;;;;;15.53;100.00;101359.41;4952861;28;20051;-83
2021/08/23 05:20:38;;;;;;;4.72;4.32;;;;;;;15.53;100.00;101367.31;4967264;28;20042;-82
2021/08/23 05:23:04;;;;;;;8.38;4.97;;;;;;;15.54;100.00;101376.97;4958329;28;20057;-84
2021/08/23 05:25:33;;;;;;;4.20;3.85;;;;;;;15.53;100.00;101369.97;4953980;28;20045;-81
2021/08/23 05:28:04;;;;;;;5.13;3.88;;;;;;;15.53;100.00;101366.47;4957893;28;20066;-79
2021/08/23 05:30:31;;;;;;;5.20;4.53;;;;;;;15.51;100.00;101373.53;4965722;28;20890;-81
2021/08/23 05:32:58;;;;;;;6.35;3.90;;;;;;;15.53;100.00;101375.22;4969030;28;20473;-82
2021/08/23 05:35:26;;;;;;;5.43;4.22;;;;;;;15.57;100.00;101377.84;4955608;28;20910;-81
2021/08/23 05:37:53;;;;;;;6.63;4.20;;;;;;;15.57;100.00;101372.56;4948992;28;20124;-81
2021/08/23 05:40:24;;;;;;;5.75;3.55;;;;;;;15.59;100.00;101378.66;4952590;28;20042;-80
2021/08/23 05:42:52;;;;;;;4.80;2.85;;;;;;;15.59;100.00;101376.91;4961567;28;20053;-83
2021/08/23 05:45:19;;;;;;;4.53;3.20;;;;;;;15.56;100.00;101379.59;4955172;28;20042;-82
2021/08/23 05:47:46;;;;;;;4.38;3.67;;;;;;;15.54;100.00;101384.03;4934896;28;20138;-80
2021/08/23 05:50:12;;;;;;;5.47;3.65;;;;;;;15.51;100.00;101387.59;4925659;28;20543;-80
2021/08/23 05:52:39;;;;;;;4.00;3.42;;;;;;;15.51;100.00;101389.34;4932180;28;20058;-80
2021/08/23 05:55:06;;;;;;;3.55;3.25;;;;;;;15.48;100.00;101394.69;4928592;28;20050;-83
2021/08/23 05:57:32;;;;;;;5.53;4.05;;;;;;;15.49;100.00;101399.94;4930121;28;20692;-83
2021/08/23 05:59:59;;;;;;;4.63;3.70;;;;;;;15.50;100.00;101395.53;4945597;28;20049;-79
2021/08/23 06:02:25;;;;;;;3.35;3.05;;;;;;;15.54;100.00;101399.88;4939822;28;20564;-82
2021/08/23 06:04:52;;;;;;;9.15;4.35;;;;;;;15.58;100.00;101393.63;4932138;28;20043;-82
2021/08/23 06:07:19;;;;;;;4.43;3.78;;;;;;;15.64;100.00;101405.84;4915242;28;20075;-81
2021/08/23 06:09:45;;;;;;;3.28;2.70;;;;;;;15.68;100.00;101399.59;4951713;28;20054;-83
2021/08/23 06:12:12;;;;;;;5.57;3.13;;;;;;;15.74;100.00;101401.28;4932466;28;20051;-86
2021/08/23 06:14:40;;;;;;;4.68;2.95;;;;;;;15.78;100.00;101401.19;4942298;28;20094;-80
2021/08/23 06:17:08;;;;;;;3.90;3.17;;;;;;;15.82;100.00;101396.75;4932661;28;20043;-77
2021/08/23 06:19:35;;;;;;;3.00;2.80;;;;;;;15.88;100.00;101404.56;4925688;28;20043;-78
2021/08/23 06:22:02;;;;;;;4.38;2.70;;;;;;;15.93;99.43;101407.09;4947835;28;20058;-83
2021/08/23 06:24:31;;;;;;;2.70;2.50;;;;;;;15.96;99.29;101402.63;4936921;28;20057;-83
2021/08/23 06:26:58;;;;;;;2.20;2.10;;;;;;;16.04;99.01;101415.69;4934290;28;20039;-81
2021/08/23 06:29:24;;;;;;;3.55;2.85;;;;;;;16.09;97.77;101415.59;4933889;28;20799;-82
2021/08/23 06:31:51;;;;;;;3.30;2.00;;;;;;;16.10;97.41;101412.94;4924657;28;20047;-84
2021/08/23 06:34:17;;;;;;;5.43;2.83;;;;;;;16.13;97.36;101419.94;4943839;28;20051;-84
2021/08/23 06:36:45;;;;;;;4.55;2.60;;;;;;;16.17;96.72;101433.03;4910126;28;20050;-79
2021/08/23 06:39:12;;;;;;;4.80;1.92;;;;;;;16.19;96.49;101427.72;4926919;28;20047;-81
2021/08/23 06:41:39;;;;;;;3.97;2.10;;;;;;;16.21;96.21;101426.78;4915945;29;20422;-80
2021/08/23 06:44:05;;;;;;;4.97;1.90;;;;;;;16.27;95.84;101427.56;4940658;28;20732;-79
2021/08/23 06:46:32;;;;;;;3.80;2.50;;;;;;;16.37;95.71;101431.75;4948721;28;20089;-79
2021/08/23 06:48:59;;;;;;;2.38;1.80;;;;;;;16.45;94.92;101437.78;4928907;28;20062;-83
2021/08/23 06:51:26;;;;;;;1.90;1.80;;;;;;;16.56;94.68;101436.66;4964059;28;20063;-82
2021/08/23 06:53:52;;;;;;;3.92;2.38;;;;;;;16.67;93.80;101438.19;4950094;28;20513;-87
2021/08/23 06:56:20;;;;;;;9.13;2.20;;;;;;;16.74;93.55;101438.03;4948150;28;20051;-85
2021/08/23 06:58:47;;;;;;;1.88;1.48;;;;;;;16.73;92.67;101436.31;4950634;28;20677;-82
2021/08/23 07:01:15;;;;;;;2.80;1.65;;;;;;;16.67;92.26;101440.81;4946187;28;20066;-82
2021/08/23 07:03:41;;;;;;;2.55;2.05;;;;;;;16.62;92.52;101444.44;4952404;28;20053;-83
2021/08/23 07:06:08;;;;;;;4.15;2.95;;;;;;;16.58;93.00;101454.22;4963404;28;20504;-83
2021/08/23 07:08:34;;;;;;;4.13;1.75;;;;;;;16.57;92.75;101451.59;4959341;28;20039;-80
2021/08/23 07:11:01;;;;;;;2.35;2.15;;;;;;;16.52;92.97;101449.94;4952377;28;20050;-86
2021/08/23 07:13:29;;;;;;;5.43;2.03;;;;;;;16.47;93.28;101449.16;4947521;28;20478;-80
2021/08/23 07:15:58;;;;;;;3.05;1.58;;;;;;;16.46;93.77;101460.63;4933539;28;20054;-79
2021/08/23 07:18:24;;;;;;;1.73;1.63;;;;;;;16.45;93.34;101461.56;4953905;28;20054;-79
2021/08/23 07:20:53;;;;;;;1.60;1.50;;;;;;;16.44;93.55;101461.56;4961735;28;20050;-79
2021/08/23 07:23:20;;;;;;;2.20;1.70;;;;;;;16.43;93.45;101466.00;4966882;28;20046;-80
2021/08/23 07:25:47;;;;;;;2.78;2.05;;;;;;;16.35;93.63;101466.13;4974519;28;20588;-79
2021/08/23 07:28:16;;;;;;;2.55;2.25;;;;;;;16.29;93.80;101468.91;4962186;28;20053;-82
2021/08/23 07:30:43;;;;;;;3.78;2.00;;;;;;;16.25;94.21;101466.38;4950517;28;20061;-81
2021/08/23 07:33:10;;;;;;;3.47;1.45;;;;;;;16.24;94.18;101472.53;4947739;28;20054;-80
2021/08/23 07:35:37;;;;;;;3.13;2.17;;;;;;;16.23;94.14;101476.06;4951570;28;20058;-82
2021/08/23 07:38:04;;;;;;;3.50;2.33;;;;;;;16.23;94.26;101474.31;4930820;28;20051;-83
2021/08/23 07:40:31;;;;;;;2.58;2.00;;;;;;;16.25;93.91;101476.94;4936754;28;20054;-79
2021/08/23 07:42:58;;;;;;;3.15;2.00;;;;;;;16.27;93.90;101488.31;4949946;28;20035;-84
2021/08/23 07:45:31;;;;;;;1.83;1.70;;;;;;;16.27;93.77;101493.59;4964652;28;20046;-83
2021/08/23 07:47:57;;;;;;;2.33;2.13;;;;;;;16.32;94.10;101494.38;4940954;28;20051;-81
2021/08/23 07:50:24;;;;;;;2.13;1.90;;;;;;;16.42;93.64;101497.75;4944243;28;20038;-82
2021/08/23 07:52:53;;;;;;;3.67;2.03;;;;;;;16.52;92.67;101499.28;4965573;28;20050;-87
2021/08/23 07:55:19;;;;;;;2.85;1.70;;;;;;;16.58;92.65;101504.44;4945532;28;20050;-82
2021/08/23 07:57:48;;;;;;;3.42;1.70;;;;;;;16.67;92.08;101500.75;4934025;28;20078;-81
2021/08/23 08:00:19;;;;;;;3.45;1.73;;;;;;;16.79;91.75;101495.22;4934262;28;20168;-78
2021/08/23 08:02:46;;;;;;;2.10;1.70;;;;;;;16.95;91.30;101501.06;4961850;28;20061;-80
2021/08/23 08:05:13;;;;;;;2.35;2.15;;;;;;;17.11;90.86;101498.94;4949663;28;20035;-78
2021/08/23 08:07:40;;;;;;;2.47;2.22;;;;;;;17.30;89.71;101504.69;4932615;28;20055;-82
2021/08/23 08:10:09;;;;;;;2.05;1.73;;;;;;;17.46;88.88;101504.31;4949242;28;20039;-79
2021/08/23 08:12:37;;;;;;;2.95;1.70;;;;;;;17.57;87.91;101514.63;4965941;28;20767;-79
2021/08/23 08:15:05;;;;;;;5.57;1.80;;;;;;;17.74;87.42;101515.06;4928240;28;20118;-82
2021/08/23 08:17:32;;;;;;;1.92;1.63;;;;;;;17.92;85.68;101523.47;4946981;28;20043;-80
2021/08/23 08:19:58;;;;;;;2.22;1.80;;;;;;;18.05;85.22;101530.22;4954568;28;20082;-84
2021/08/23 08:22:25;;;;;;;4.20;1.50;;;;;;;18.27;84.64;101532.31;4950737;28;20046;-86
2021/08/23 08:24:51;;;;;;;5.10;1.67;;;;;;;18.68;83.16;101532.91;4969154;28;20478;-86
2021/08/23 08:27:18;;;;;;;1.77;1.48;;;;;;;19.02;81.77;101529.31;4946355;28;20456;-81
2021/08/23 08:29:44;;;;;;;4.55;2.05;;;;;;;19.27;80.07;101536.53;4956259;28;20066;-78
2021/08/23 08:32:11;;;;;;;5.50;1.80;;;;;;;19.29;79.30;101535.53;4951660;28;20042;-79
2021/08/23 08:34:37;;;;;;;1.50;1.35;;;;;;;19.23;79.55;101526.91;4955056;28;20058;-86
2021/08/23 08:37:13;;;;;;;5.22;1.92;;;;;;;19.26;79.42;101535.66;4956601;28;20482;-79
2021/08/23 08:39:40;;;;;;;5.30;2.53;;;;;;;19.39;79.61;101530.81;4967182;28;20074;-82
2021/08/23 08:42:07;;;;;;;1.85;1.40;;;;;;;19.59;78.96;101532.81;4953369;28;20050;-83
2021/08/23 08:44:35;;;;;;;2.40;1.65;;;;;;;19.59;78.26;101527.50;4948369;28;20047;-79
2021/08/23 08:47:04;;;;;;;2.38;2.00;;;;;;;19.81;78.08;101538.31;4954275;28;20058;-87
2021/08/23 08:49:35;;;;;;;3.08;2.17;;;;;;;20.15;76.98;101537.19;4954771;28;20046;-81
2021/08/23 08:52:05;;;;;;;9.05;2.20;;;;;;;20.30;75.95;101542.88;4956183;28;20289;-82
2021/08/23 08:54:34;;;;;;;1.45;1.35;;;;;;;20.32;75.49;101535.72;4957157;28;20038;-79
2021/08/23 08:57:04;;;;;;;2.00;1.52;;;;;;;20.41;75.39;101550.47;4969217;28;20056;-79
2021/08/23 08:59:34;;;;;;;5.18;1.80;;;;;;;20.48;75.17;101551.97;4958733;28;20521;-87
2021/08/23 09:02:02;;;;;;;4.47;2.15;;;;;;;20.45;75.08;101550.28;4956096;28;20065;-85
2021/08/23 09:04:36;;;;;;;1.95;1.85;;;;;;;20.38;75.07;101550.59;4971844;28;20140;-79
2021/08/23 09:07:06;;;;;;;4.05;1.92;;;;;;;20.32;74.99;101547.22;4974487;28;20066;-80
2021/08/23 09:09:33;;;;;;;2.05;1.58;;;;;;;20.58;74.19;101553.38;4957685;28;20532;-78
2021/08/23 09:12:18;;;;;;;2.47;1.75;;;;;;;20.95;72.24;101548.50;4961048;28;20061;-80
2021/08/23 09:14:55;;;;;;;1.80;1.70;;;;;;;21.52;70.52;101550.72;4951844;28;20043;-79
2021/08/23 09:17:24;;;;;;;2.90;1.92;;;;;;;21.97;68.76;101561.31;4973071;28;20489;-82
2021/08/23 09:20:02;;;;;;;6.55;2.30;;;;;;;22.03;67.08;101562.88;4954387;28;20082;-85
2021/08/23 09:22:29;;;;;;;1.83;1.73;;;;;;;22.16;67.67;101563.19;4971679;28;20062;-78
2021/08/23 09:24:55;;;;;;;1.85;1.60;;;;;;;22.44;66.76;101572.69;4956422;28;20050;-81
2021/08/23 09:27:22;;;;;;;2.60;2.22;;;;;;;22.79;64.80;101570.25;4951934;28;20058;-86
2021/08/23 09:29:59;;;;;;;3.30;1.85;;;;;;;22.70;63.75;101570.66;4971814;28;20113;-81
2021/08/23 09:32:36;;;;;;;2.17;1.98;;;;;;;22.41;64.93;101568.34;4950745;28;20046;-79
2021/08/23 09:35:03;;;;;;;2.35;1.85;;;;;;;22.63;63.37;101576.28;4951850;28;20499;-78
2021/08/23 09:37:34;;;;;;;3.00;1.85;;;;;;;22.76;63.46;101568.56;4970331;28;20060;-83
2021/08/23 09:40:13;;;;;;;2.55;1.98;;;;;;;23.25;61.90;101562.75;4952580;28;20049;-80
2021/08/23 09:42:40;;;;;;;1.55;1.45;;;;;;;24.04;59.46;101571.41;4969330;28;20650;-80
2021/08/23 09:45:17;;;;;;;3.38;2.20;;;;;;;24.40;56.79;101579.31;4950503;28;20145;-78
2021/08/23 09:47:44;;;;;;;2.10;2.00;;;;;;;24.79;56.43;101573.78;4957312;28;20155;-86
2021/08/23 09:50:18;;;;;;;7.05;5.22;;;;;;;24.50;55.68;101570.84;4965048;28;20042;-80
2021/08/23 09:52:48;;;;;;;2.88;1.70;;;;;;;24.69;55.66;101576.97;4968309;28;20042;-79
2021/08/23 09:55:14;;;;;;;1.88;1.60;;;;;;;25.78;52.99;101568.28;4953745;28;20458;-85
2021/08/23 09:57:42;;;;;;;1.63;1.40;;;;;;;26.45;50.98;101573.22;4977487;28;20060;-83
2021/08/23 10:00:12;;;;;;;3.60;1.73;;;;;;;27.33;48.63;101568.56;4955399;28;20042;-83
2021/08/23 10:02:49;;;;;;;1.50;1.40;;;;;;;28.78;46.08;101576.75;4967643;28;20077;-83
2021/08/23 10:05:21;;;;;;;1.70;1.60;;;;;;;29.12;41.49;101574.31;4971126;28;20069;-86
2021/08/23 10:07:48;;;;;;;1.95;1.60;;;;;;;29.11;42.02;101580.69;4953931;28;20734;-85
2021/08/23 10:10:15;;;;;;;3.97;1.70;;;;;;;29.11;40.93;101578.00;4971936;28;20039;-81
2021/08/23 10:12:42;;;;;;;1.58;1.23;;;;;;;29.68;40.49;101583.72;4971812;28;20702;-82
2021/08/23 10:15:09;;;;;;;1.35;1.25;;;;;;;30.63;39.25;101586.31;4950223;28;20070;-78
2021/08/23 10:17:37;;;;;;;1.70;1.50;;;;;;;31.15;38.17;101588.56;4970483;28;20066;-90
2021/08/23 10:20:10;;;;;;;2.47;1.40;;;;;;;30.36;38.39;101590.22;4950906;28;20043;-87
2021/08/23 10:22:40;;;;;;;1.33;1.10;;;;;;;29.11;40.87;101588.78;4971762;28;20677;-89
2021/08/23 10:25:09;;;;;;;1.30;1.30;;;;;;;28.28;42.51;101594.59;4956286;28;20047;-81
2021/08/23 10:27:39;;;;;;;1.10;1.00;;;;;;;28.23;41.81;101595.78;4952928;28;20092;-86
2021/08/23 10:30:09;;;;;;;2.42;1.17;;;;;;;28.81;39.40;101597.22;4969336;28;20057;-84
2021/08/23 10:32:39;;;;;;;3.58;1.17;;;;;;;28.53;40.51;101602.69;4965238;28;20035;-78
2021/08/23 10:35:24;;;;;;;2.92;1.60;;;;;;;27.97;40.89;101607.47;4965935;28;20129;-81
2021/08/23 10:37:55;;;;;;;1.35;1.25;;;;;;;27.51;42.85;101608.72;4951410;28;20054;-82
2021/08/23 10:40:36;;;;;;;2.67;1.20;;;;;;;27.28;43.06;101608.34;4969138;28;20054;-82
2021/08/23 10:43:19;;;;;;;1.00;0.88;;;;;;;27.67;41.73;101604.03;4954411;28;20046;-83
2021/08/23 10:45:47;;;;;;;0.82;0.80;;;;;;;27.92;40.72;101607.75;4949005;28;20417;-87
2021/08/23 10:48:20;;;;;;;2.30;0.88;;;;;;;28.00;40.60;101607.25;4954463;28;20125;-82
2021/08/23 10:51:01;;;;;;;0.70;0.60;;;;;;;27.86;38.79;101600.97;4942741;28;20050;-80
2021/08/23 10:53:40;;;;;;;0.60;0.60;;;;;;;27.56;39.40;101614.63;4929494;29;20502;-82
2021/08/23 10:56:18;;;;;;;1.52;0.73;;;;;;;27.27;38.33;101600.38;4929471;28;22205;-86
2021/08/23 10:58:47;;;;;;;1.95;1.20;;;;;;;27.91;39.30;101608.72;4947911;28;20126;-79
2021/08/23 11:01:22;;;;;;;1.48;0.80;;;;;;;29.25;37.05;101608.47;4948471;28;20047;-83
2021/08/23 11:04:03;;;;;;;1.42;0.88;;;;;;;29.98;33.39;101604.84;4956779;28;20495;-85
2021/08/23 11:06:30;;;;;;;0.82;0.80;;;;;;;29.71;35.07;101605.06;4958609;28;20051;-86
2021/08/23 11:09:12;;;;;;;0.80;0.70;;;;;;;29.99;33.60;101603.00;4929634;28;20430;-86
2021/08/23 11:11:41;;;;;;;0.82;0.70;;;;;;;30.19;31.95;101598.75;4960018;28;20206;-84
2021/08/23 11:14:22;;;;;;;2.72;0.80;;;;;;;31.25;31.66;101605.75;4930372;29;20410;-85
2021/08/23 11:16:55;;;;;;;1.23;0.70;;;;;;;32.30;29.60;101596.13;4945941;28;20366;-78
2021/08/23 11:19:24;;;;;;;1.00;0.80;;;;;;;32.17;30.05;101613.41;4946849;28;20050;-87
2021/08/23 11:21:59;;;;;;;2.00;0.90;;;;;;;31.49;30.50;101608.25;4944292;28;20063;-85
2021/08/23 11:24:35;;;;;;;1.02;0.68;;;;;;;31.87;29.00;101597.09;4929826;29;20134;-87
2021/08/23 11:27:04;;;;;;;1.38;0.60;;;;;;;32.13;29.61;101600.25;4911630;29;20211;-83